Time;durP1;ratioP1;P1;durP2;ratioP2;P2;SDS_P1;SDS_P2;PMS_P1;PMS_P2;Temp;Humidity;BMP_temperature;BMP_pressure;BME280_temperature;BME280_humidity;BME280_pressure;Samples;Min_cycle;Max_cycle;Signal;HPM_P1;HPM_P2
2023/10/31 00:02:14;;;;;;;20.02;17.98;;;12.50;99.90;;;;;;5001753;28;20098;-87
2023/10/31 00:04:39;;;;;;;20.30;17.67;;;12.60;99.90;;;;;;5008348;28;20056;-87
2023/10/31 00:07:05;;;;;;;19.30;17.20;;;12.60;99.90;;;;;;4992276;28;20038;-86
2023/10/31 00:09:31;;;;;;;21.58;19.38;;;12.50;99.90;;;;;;4990369;28;20053;-86
2023/10/31 00:11:57;;;;;;;24.52;22.13;;;12.50;99.90;;;;;;4987683;28;20078;-86
2023/10/31 00:14:23;;;;;;;23.85;21.45;;;12.60;99.90;;;;;;4994434;28;20440;-86
2023/10/31 00:16:49;;;;;;;24.75;22.25;;;12.50;99.90;;;;;;4993523;28;20048;-86
2023/10/31 00:19:14;;;;;;;25.95;23.25;;;12.60;99.90;;;;;;5001275;28;20053;-87
2023/10/31 00:21:40;;;;;;;26.77;23.98;;;12.50;99.90;;;;;;5003157;28;20042;-87
2023/10/31 00:24:06;;;;;;;26.75;24.05;;;12.60;99.90;;;;;;4997126;28;20547;-81
2023/10/31 00:26:31;;;;;;;26.60;23.90;;;12.60;99.90;;;;;;5001201;28;20048;-81
2023/10/31 00:28:57;;;;;;;28.33;25.00;;;12.60;99.90;;;;;;5109144;27;20091;-81
2023/10/31 00:31:23;;;;;;;27.23;24.40;;;12.60;99.90;;;;;;4992320;28;20281;-81
2023/10/31 00:33:48;;;;;;;28.02;24.95;;;12.60;99.90;;;;;;5001108;28;20098;-81
2023/10/31 00:36:14;;;;;;;27.42;24.60;;;12.50;99.90;;;;;;5004999;28;20022;-81
2023/10/31 00:38:40;;;;;;;27.38;24.52;;;12.50;99.90;;;;;;5005211;28;20046;-81
2023/10/31 00:41:05;;;;;;;29.27;26.02;;;12.60;99.90;;;;;;4996167;28;20038;-81
2023/10/31 00:43:31;;;;;;;27.77;24.95;;;12.50;99.90;;;;;;5002799;28;20086;-81
2023/10/31 00:45:56;;;;;;;27.98;25.20;;;12.60;99.90;;;;;;4998627;28;20116;-81
2023/10/31 00:48:22;;;;;;;30.33;27.23;;;12.50;99.90;;;;;;5097108;27;20042;-81
2023/10/31 00:50:47;;;;;;;29.85;26.67;;;12.50;99.90;;;;;;4985629;28;20051;-81
2023/10/31 00:53:14;;;;;;;31.48;28.08;;;12.60;99.90;;;;;;4999153;28;20038;-81
2023/10/31 00:55:40;;;;;;;30.83;27.60;;;12.60;99.90;;;;;;5004925;28;20054;-81
2023/10/31 00:58:05;;;;;;;34.85;29.92;;;12.60;99.90;;;;;;4999203;28;20042;-81
2023/10/31 01:00:31;;;;;;;34.90;30.77;;;12.60;99.90;;;;;;5106135;27;20105;-81
2023/10/31 01:02:57;;;;;;;30.80;27.60;;;12.60;99.90;;;;;;4987566;28;20054;-81
2023/10/31 01:05:23;;;;;;;30.77;27.63;;;12.60;99.90;;;;;;4996078;28;20054;-81
2023/10/31 01:07:48;;;;;;;31.60;28.38;;;12.60;99.90;;;;;;4987373;28;20050;-80
2023/10/31 01:10:14;;;;;;;31.45;28.05;;;12.60;99.90;;;;;;5005924;28;20037;-81
2023/10/31 01:12:40;;;;;;;32.35;29.00;;;12.60;99.90;;;;;;5005825;28;20099;-81
2023/10/31 01:15:06;;;;;;;31.73;28.42;;;12.60;99.90;;;;;;5001140;28;20033;-81
2023/10/31 01:17:32;;;;;;;31.00;27.77;;;12.60;99.90;;;;;;4997566;28;20099;-81
2023/10/31 01:19:58;;;;;;;33.90;30.20;;;12.60;99.90;;;;;;4992975;28;20038;-81
2023/10/31 01:22:23;;;;;;;32.50;29.10;;;12.60;99.90;;;;;;5007595;28;20444;-81
2023/10/31 01:24:49;;;;;;;31.33;28.13;;;12.60;99.90;;;;;;4992700;28;20045;-81
2023/10/31 01:27:14;;;;;;;32.90;29.50;;;12.60;99.90;;;;;;5000982;28;20505;-80
2023/10/31 01:29:40;;;;;;;33.58;29.98;;;12.50;99.90;;;;;;5004234;28;20390;-81
2023/10/31 01:32:06;;;;;;;33.95;30.25;;;12.60;99.90;;;;;;5017514;28;20049;-81
2023/10/31 01:34:31;;;;;;;34.40;30.75;;;12.60;99.90;;;;;;5001804;28;20037;-81
2023/10/31 01:36:57;;;;;;;34.22;30.30;;;12.60;99.90;;;;;;4998497;28;20030;-81
2023/10/31 01:39:23;;;;;;;33.90;30.30;;;12.60;99.90;;;;;;5005459;28;20042;-81
2023/10/31 01:41:48;;;;;;;34.92;31.17;;;12.60;99.90;;;;;;4995382;28;20060;-81
2023/10/31 01:44:14;;;;;;;35.75;31.60;;;12.60;99.90;;;;;;4992898;28;20051;-81
2023/10/31 01:46:40;;;;;;;36.25;31.85;;;12.60;99.90;;;;;;4992772;28;20050;-80
2023/10/31 01:49:06;;;;;;;34.20;30.50;;;12.60;99.90;;;;;;5009342;28;20136;-81
2023/10/31 01:51:32;;;;;;;34.97;29.80;;;12.60;99.90;;;;;;5002620;28;20089;-81
2023/10/31 01:53:57;;;;;;;35.35;31.13;;;12.60;99.90;;;;;;4989242;28;20491;-81
2023/10/31 01:56:25;;;;;;;34.67;30.85;;;12.60;99.90;;;;;;5104942;27;20046;-81
2023/10/31 01:58:52;;;;;;;34.75;30.75;;;12.60;99.90;;;;;;4996403;28;20111;-81
2023/10/31 02:01:18;;;;;;;;;;;12.60;99.90;;;;;;4996867;28;20617;-81
2023/10/31 02:03:43;;;;;;;35.10;31.27;;;12.60;99.90;;;;;;5017108;28;20020;-81
2023/10/31 02:06:09;;;;;;;43.60;33.35;;;12.60;99.90;;;;;;4999637;28;20542;-81
2023/10/31 02:08:35;;;;;;;42.85;34.75;;;12.60;99.90;;;;;;4993599;28;20077;-81
2023/10/31 02:11:01;;;;;;;41.88;33.13;;;12.60;99.90;;;;;;4996761;28;20099;-81
2023/10/31 02:13:26;;;;;;;47.70;35.53;;;12.60;99.90;;;;;;4996259;28;20113;-81
2023/10/31 02:15:52;;;;;;;15.63;14.00;;;12.60;99.90;;;;;;5001548;28;20568;-81
2023/10/31 02:18:18;;;;;;;4.35;3.03;;;12.50;99.90;;;;;;5002002;28;20422;-81
2023/10/31 02:20:44;;;;;;;2.45;1.20;;;12.40;99.90;;;;;;4991627;28;20054;-81
2023/10/31 02:23:09;;;;;;;0.90;0.60;;;12.20;99.90;;;;;;4993336;28;20054;-81
2023/10/31 02:25:35;;;;;;;0.70;0.40;;;12.00;99.90;;;;;;5006746;28;20091;-86
2023/10/31 02:28:01;;;;;;;1.08;0.50;;;11.90;99.90;;;;;;5004427;28;20103;-80
2023/10/31 02:30:27;;;;;;;0.30;0.30;;;11.70;99.90;;;;;;5003608;28;20859;-81
2023/10/31 02:32:53;;;;;;;0.40;0.40;;;11.60;99.90;;;;;;5005833;28;20525;-81
2023/10/31 02:35:19;;;;;;;0.82;0.38;;;11.60;99.90;;;;;;4995197;28;20034;-81
2023/10/31 02:37:46;;;;;;;0.73;0.50;;;11.50;99.90;;;;;;4998212;28;20042;-81
2023/10/31 02:40:12;;;;;;;0.33;0.33;;;11.50;99.90;;;;;;5094778;27;20042;-81
2023/10/31 02:42:37;;;;;;;2.15;0.50;;;11.40;99.90;;;;;;5007499;28;20045;-81
2023/10/31 02:45:03;;;;;;;2.22;0.60;;;11.20;99.90;;;;;;5000702;28;20035;-81
2023/10/31 02:47:29;;;;;;;0.90;0.60;;;11.20;99.90;;;;;;4992577;28;20498;-81
2023/10/31 02:49:55;;;;;;;0.82;0.50;;;11.20;99.90;;;;;;5003027;28;20046;-81
2023/10/31 02:52:20;;;;;;;0.93;0.60;;;11.20;99.90;;;;;;5000943;28;20050;-81
2023/10/31 02:54:46;;;;;;;1.95;0.60;;;11.10;99.90;;;;;;4995826;28;20050;-81
2023/10/31 02:57:12;;;;;;;0.60;0.60;;;11.10;99.90;;;;;;4992030;28;20555;-81
2023/10/31 02:59:37;;;;;;;1.35;0.50;;;11.00;99.90;;;;;;5002691;28;20537;-80
2023/10/31 03:02:03;;;;;;;1.65;0.63;;;11.00;99.90;;;;;;5004820;28;20091;-80
2023/10/31 03:04:29;;;;;;;2.50;0.70;;;11.00;99.90;;;;;;4998949;28;20046;-80
2023/10/31 03:06:54;;;;;;;2.38;0.60;;;10.90;99.90;;;;;;5001706;28;20046;-80
2023/10/31 03:09:20;;;;;;;3.28;0.77;;;10.90;99.90;;;;;;5012260;28;20489;-80
2023/10/31 03:11:46;;;;;;;1.77;0.70;;;10.80;99.90;;;;;;5007280;28;20038;-81
2023/10/31 03:14:11;;;;;;;2.35;0.98;;;10.80;99.90;;;;;;4998885;28;20041;-80
2023/10/31 03:16:38;;;;;;;3.28;0.90;;;10.70;99.90;;;;;;5010688;28;20050;-81
2023/10/31 03:19:04;;;;;;;2.03;0.82;;;10.80;99.90;;;;;;5005202;28;20070;-80
2023/10/31 03:21:29;;;;;;;5.65;1.20;;;10.70;99.90;;;;;;5001224;28;20070;-80
2023/10/31 03:23:55;;;;;;;3.10;1.00;;;10.70;99.90;;;;;;5003860;28;20038;-80
2023/10/31 03:26:21;;;;;;;3.38;1.10;;;10.70;99.90;;;;;;4999501;28;20053;-80
2023/10/31 03:28:47;;;;;;;3.25;1.10;;;10.60;99.90;;;;;;5005143;28;20053;-80
2023/10/31 03:31:13;;;;;;;3.47;1.30;;;10.70;99.90;;;;;;5001844;28;20042;-80
2023/10/31 03:33:39;;;;;;;3.70;1.40;;;10.60;99.90;;;;;;4994345;28;20549;-81
2023/10/31 03:36:05;;;;;;;3.83;1.15;;;10.60;99.90;;;;;;5000847;28;20041;-80
2023/10/31 03:38:31;;;;;;;5.45;1.58;;;10.60;99.90;;;;;;5004216;28;20042;-81
2023/10/31 03:40:57;;;;;;;4.40;1.52;;;10.60;99.90;;;;;;4993361;28;20034;-81
2023/10/31 03:43:23;;;;;;;4.32;1.80;;;10.60;99.90;;;;;;5002435;28;20650;-81
2023/10/31 03:45:49;;;;;;;4.95;2.30;;;10.50;99.90;;;;;;4994206;28;20127;-81
2023/10/31 03:48:16;;;;;;;5.72;2.10;;;10.60;99.90;;;;;;5000057;28;20575;-81
2023/10/31 03:50:41;;;;;;;4.13;2.20;;;10.50;99.90;;;;;;4995776;28;20465;-80
2023/10/31 03:53:07;;;;;;;4.30;2.05;;;10.50;99.90;;;;;;4988031;28;20046;-80
2023/10/31 03:55:33;;;;;;;5.80;2.80;;;10.60;99.90;;;;;;5002206;28;20130;-80
2023/10/31 03:57:58;;;;;;;4.05;2.42;;;10.60;99.90;;;;;;4996884;28;20050;-79
2023/10/31 04:00:24;;;;;;;5.03;3.35;;;10.60;99.90;;;;;;4996924;28;20045;-80
2023/10/31 04:02:50;;;;;;;6.03;3.15;;;10.60;99.90;;;;;;5004653;28;20045;-80
2023/10/31 04:05:15;;;;;;;5.13;3.45;;;10.60;99.90;;;;;;4996708;28;20434;-80
2023/10/31 04:07:43;;;;;;;6.43;3.38;;;10.60;99.90;;;;;;5005085;28;20034;-80
2023/10/31 04:10:08;;;;;;;6.65;2.65;;;10.60;99.90;;;;;;5094339;27;20483;-80
2023/10/31 04:12:34;;;;;;;7.38;3.90;;;10.60;99.90;;;;;;4996722;28;20134;-79
2023/10/31 04:15:00;;;;;;;6.18;3.22;;;10.60;99.90;;;;;;5004726;28;20061;-80
2023/10/31 04:17:26;;;;;;;5.07;1.95;;;10.60;99.90;;;;;;4994212;28;20051;-79
2023/10/31 04:19:52;;;;;;;6.53;2.58;;;10.60;99.90;;;;;;5002376;28;20050;-79
2023/10/31 04:22:17;;;;;;;4.95;2.08;;;10.60;99.90;;;;;;5007686;28;20462;-80
2023/10/31 04:24:43;;;;;;;4.60;2.10;;;10.60;99.90;;;;;;5003278;28;20449;-80
2023/10/31 04:27:09;;;;;;;6.93;2.92;;;10.60;99.90;;;;;;4994553;28;20448;-79
2023/10/31 04:29:34;;;;;;;5.32;2.28;;;10.60;99.90;;;;;;4996496;28;20034;-79
2023/10/31 04:32:00;;;;;;;4.55;2.03;;;10.60;99.90;;;;;;5000091;28;20631;-80
2023/10/31 04:34:26;;;;;;;4.00;2.60;;;10.60;99.90;;;;;;5102932;27;20516;-80
2023/10/31 04:36:51;;;;;;;3.92;2.30;;;10.60;99.90;;;;;;4997082;28;20115;-80
2023/10/31 04:39:17;;;;;;;4.05;2.10;;;10.60;99.90;;;;;;5000339;28;20078;-80
2023/10/31 04:41:43;;;;;;;4.30;2.15;;;10.70;99.90;;;;;;5008460;28;20041;-80
2023/10/31 04:44:08;;;;;;;4.18;1.73;;;10.60;99.90;;;;;;5000206;28;20543;-79
2023/10/31 04:46:34;;;;;;;5.22;2.10;;;10.60;99.90;;;;;;4997489;28;20053;-80
2023/10/31 04:49:00;;;;;;;4.13;1.80;;;10.60;99.90;;;;;;4997339;28;20060;-79
2023/10/31 04:51:25;;;;;;;3.72;1.60;;;10.60;99.90;;;;;;4999390;28;20061;-79
2023/10/31 04:53:51;;;;;;;3.80;1.67;;;10.70;99.90;;;;;;4993286;28;20050;-79
2023/10/31 04:56:17;;;;;;;3.88;2.05;;;10.60;99.90;;;;;;5008731;28;20477;-79
2023/10/31 04:58:44;;;;;;;5.05;2.10;;;10.60;99.90;;;;;;5005893;28;20437;-79
2023/10/31 05:01:13;;;;;;;4.00;1.70;;;10.60;99.90;;;;;;5006377;28;20050;-79
2023/10/31 05:03:39;;;;;;;5.13;1.80;;;10.60;99.90;;;;;;4994280;28;20050;-80
2023/10/31 05:06:05;;;;;;;3.50;2.15;;;10.60;99.90;;;;;;5005830;28;20034;-79
2023/10/31 05:08:32;;;;;;;3.80;1.70;;;10.60;99.90;;;;;;5000407;28;20712;-79
2023/10/31 05:10:59;;;;;;;3.97;1.90;;;10.60;99.90;;;;;;4999393;28;20077;-79
2023/10/31 05:13:25;;;;;;;6.78;2.60;;;10.60;99.90;;;;;;5005870;28;20038;-79
2023/10/31 05:15:50;;;;;;;2.78;1.50;;;10.60;99.90;;;;;;5000599;28;20139;-79
2023/10/31 05:18:17;;;;;;;4.45;1.83;;;10.60;99.90;;;;;;5004574;28;20478;-79
2023/10/31 05:20:42;;;;;;;3.42;1.85;;;10.60;99.90;;;;;;4992274;28;20058;-79
2023/10/31 05:23:08;;;;;;;5.45;2.00;;;10.60;99.90;;;;;;4988290;28;20054;-79
2023/10/31 05:25:34;;;;;;;6.55;1.92;;;10.60;99.90;;;;;;5001852;28;20068;-80
2023/10/31 05:28:04;;;;;;;5.38;2.03;;;10.60;99.90;;;;;;5094004;27;20072;-80
2023/10/31 05:30:29;;;;;;;5.38;2.10;;;10.60;99.90;;;;;;5014116;28;20034;-80
2023/10/31 05:32:55;;;;;;;3.63;1.95;;;10.50;99.90;;;;;;4997824;28;20046;-80
2023/10/31 05:35:21;;;;;;;5.85;2.25;;;10.50;99.90;;;;;;5005496;28;20052;-80
2023/10/31 05:37:47;;;;;;;4.13;1.70;;;10.50;99.90;;;;;;5012514;28;20061;-80
2023/10/31 05:40:14;;;;;;;6.40;2.28;;;10.50;99.90;;;;;;5004104;28;20038;-80
2023/10/31 05:42:40;;;;;;;5.50;2.28;;;10.50;99.90;;;;;;5099217;27;20128;-79
2023/10/31 05:45:06;;;;;;;4.47;1.90;;;10.50;99.90;;;;;;5001416;28;20531;-80
2023/10/31 05:47:32;;;;;;;4.75;2.40;;;10.50;99.90;;;;;;5003576;28;20062;-80
2023/10/31 05:49:58;;;;;;;6.22;2.40;;;10.50;99.90;;;;;;5027874;28;20731;-80
2023/10/31 05:52:29;;;;;;;6.57;2.50;;;10.60;99.90;;;;;;5002225;28;20053;-80
2023/10/31 05:54:54;;;;;;;6.25;3.28;;;10.50;99.90;;;;;;5004451;28;20472;-80
2023/10/31 05:57:20;;;;;;;7.38;2.80;;;10.50;99.90;;;;;;5007587;28;20121;-80
2023/10/31 05:59:45;;;;;;;6.15;3.05;;;10.50;99.90;;;;;;4999002;28;20062;-80
2023/10/31 06:02:11;;;;;;;6.68;3.75;;;10.50;99.90;;;;;;5002026;28;20042;-80
2023/10/31 06:04:36;;;;;;;6.30;3.28;;;10.40;99.90;;;;;;5003298;28;20404;-80
2023/10/31 06:07:02;;;;;;;6.82;3.65;;;10.50;99.90;;;;;;5004459;28;20131;-80
2023/10/31 06:09:28;;;;;;;5.25;2.92;;;10.50;99.90;;;;;;5002154;28;20081;-81
2023/10/31 06:11:54;;;;;;;7.63;3.55;;;10.50;99.90;;;;;;5014840;28;20114;-81
2023/10/31 06:14:19;;;;;;;6.70;3.75;;;10.50;99.90;;;;;;4999650;28;20061;-81
2023/10/31 06:16:45;;;;;;;8.48;3.88;;;10.50;99.90;;;;;;5001333;28;20061;-81
2023/10/31 06:19:11;;;;;;;7.10;2.95;;;10.50;99.90;;;;;;4994541;28;20709;-81
2023/10/31 06:21:37;;;;;;;6.72;3.30;;;10.50;99.90;;;;;;4994111;28;20050;-81
2023/10/31 06:24:06;;;;;;;6.47;2.70;;;10.50;99.90;;;;;;5005561;28;20652;-81
2023/10/31 06:26:32;;;;;;;9.10;3.22;;;10.50;99.90;;;;;;5000880;28;20041;-81
2023/10/31 06:28:57;;;;;;;7.03;2.90;;;10.50;99.90;;;;;;4997160;28;20046;-81
2023/10/31 06:31:23;;;;;;;10.63;3.78;;;10.50;99.90;;;;;;4997324;28;20038;-81
2023/10/31 06:33:48;;;;;;;5.95;3.22;;;10.40;99.90;;;;;;5003162;28;20064;-77
2023/10/31 06:36:15;;;;;;;9.57;4.70;;;10.50;99.90;;;;;;4998129;28;20481;-79
2023/10/31 06:38:40;;;;;;;7.97;3.80;;;10.50;99.90;;;;;;4992610;28;20049;-80
2023/10/31 06:41:06;;;;;;;7.97;4.57;;;10.40;99.90;;;;;;4997760;28;20131;-79
2023/10/31 06:43:32;;;;;;;8.13;4.32;;;10.40;99.90;;;;;;5006877;28;20045;-79
2023/10/31 06:46:00;;;;;;;7.80;4.03;;;10.40;99.90;;;;;;4994534;28;20050;-79
2023/10/31 06:48:26;;;;;;;6.20;3.72;;;10.40;99.90;;;;;;5003615;28;20536;-80
2023/10/31 06:50:51;;;;;;;7.43;4.55;;;10.40;99.90;;;;;;5012470;28;20044;-80
2023/10/31 06:53:17;;;;;;;9.05;4.50;;;10.40;99.90;;;;;;5010537;28;20098;-76
2023/10/31 06:55:43;;;;;;;8.57;4.93;;;10.40;99.90;;;;;;4992558;28;20137;-80
2023/10/31 06:58:09;;;;;;;8.50;4.38;;;10.40;99.90;;;;;;4999087;28;20150;-79
2023/10/31 07:00:34;;;;;;;6.93;3.83;;;10.40;99.90;;;;;;5001946;28;20052;-80
2023/10/31 07:03:04;;;;;;;9.73;5.57;;;10.40;99.90;;;;;;4986405;28;20103;-79
2023/10/31 07:05:31;;;;;;;7.28;4.70;;;10.40;99.90;;;;;;4983300;28;20039;-79
2023/10/31 07:07:56;;;;;;;5.13;3.60;;;10.40;99.90;;;;;;5020068;28;20515;-80
2023/10/31 07:10:22;;;;;;;7.78;4.85;;;10.40;99.90;;;;;;4997468;28;20030;-79
2023/10/31 07:12:48;;;;;;;8.95;4.03;;;10.40;99.90;;;;;;4990983;28;20098;-79
2023/10/31 07:15:13;;;;;;;6.22;3.72;;;10.40;99.90;;;;;;5109734;27;20366;-79
2023/10/31 07:17:39;;;;;;;8.65;4.03;;;10.40;99.90;;;;;;4998460;28;20053;-80
2023/10/31 07:20:06;;;;;;;5.68;3.65;;;10.50;99.90;;;;;;4997869;28;20108;-80
2023/10/31 07:22:33;;;;;;;6.45;3.38;;;10.40;99.90;;;;;;4996300;28;20696;-80
2023/10/31 07:25:02;;;;;;;8.85;4.18;;;10.50;99.90;;;;;;5115427;27;20088;-80
2023/10/31 07:27:28;;;;;;;7.18;3.88;;;10.40;99.90;;;;;;5010875;28;20666;-80
2023/10/31 07:29:54;;;;;;;5.68;3.53;;;10.40;99.90;;;;;;4997502;28;20055;-80
2023/10/31 07:32:20;;;;;;;6.85;3.47;;;10.50;99.90;;;;;;4999954;28;20042;-80
2023/10/31 07:34:45;;;;;;;6.43;4.90;;;10.50;99.90;;;;;;4989872;28;20609;-79
2023/10/31 07:37:11;;;;;;;7.35;4.00;;;10.50;99.90;;;;;;4998468;28;20078;-80
2023/10/31 07:39:37;;;;;;;6.63;4.25;;;10.50;99.90;;;;;;4998606;28;20534;-80
2023/10/31 07:42:02;;;;;;;7.55;5.05;;;10.50;99.90;;;;;;4993272;28;20706;-80
2023/10/31 07:44:28;;;;;;;6.25;3.80;;;10.50;99.90;;;;;;5008620;28;20066;-78
2023/10/31 07:46:54;;;;;;;9.65;4.07;;;10.60;99.90;;;;;;5001638;28;20132;-80
2023/10/31 07:49:20;;;;;;;7.88;3.70;;;10.60;99.90;;;;;;4995499;28;20045;-79
2023/10/31 07:51:47;;;;;;;7.72;4.80;;;10.60;99.90;;;;;;4999953;28;20525;-81
2023/10/31 07:54:13;;;;;;;;;;;10.60;99.90;;;;;;4999426;28;20045;-79
2023/10/31 07:56:40;;;;;;;9.75;4.10;;;10.60;99.90;;;;;;4990008;28;20012;-79
2023/10/31 07:59:07;;;;;;;6.43;3.73;;;10.60;99.90;;;;;;5004384;28;20034;-79
2023/10/31 08:01:34;;;;;;;6.30;3.70;;;10.60;99.90;;;;;;4991684;28;20089;-80
2023/10/31 08:03:59;;;;;;;7.25;4.18;;;10.70;99.90;;;;;;4992970;28;20063;-80
2023/10/31 08:06:25;;;;;;;9.25;4.43;;;10.70;99.90;;;;;;4996005;28;20060;-79
2023/10/31 08:08:51;;;;;;;7.55;4.13;;;10.70;99.90;;;;;;4992871;28;20129;-81
2023/10/31 08:11:16;;;;;;;6.53;3.55;;;10.70;99.90;;;;;;4992080;28;20054;-78
2023/10/31 08:13:42;;;;;;;9.75;4.70;;;10.70;99.90;;;;;;5007036;28;20056;-79
2023/10/31 08:16:08;;;;;;;5.28;3.58;;;10.70;99.90;;;;;;5000315;28;20042;-79
2023/10/31 08:18:35;;;;;;;8.30;3.53;;;10.70;99.90;;;;;;4992288;28;20057;-80
2023/10/31 08:21:01;;;;;;;5.85;3.63;;;10.70;99.90;;;;;;5003745;28;20048;-78
2023/10/31 08:23:28;;;;;;;6.30;3.58;;;10.70;99.90;;;;;;4986952;28;20042;-80
2023/10/31 08:25:54;;;;;;;5.45;3.15;;;10.70;99.90;;;;;;4993233;28;20081;-83
2023/10/31 08:28:20;;;;;;;5.78;3.53;;;10.80;99.90;;;;;;4982795;28;20492;-86
2023/10/31 08:30:46;;;;;;;5.30;2.78;;;10.80;99.90;;;;;;4994929;28;20448;-82
2023/10/31 08:33:12;;;;;;;8.50;3.30;;;10.80;99.90;;;;;;5088966;28;20561;-84
2023/10/31 08:35:38;;;;;;;3.70;2.88;;;10.90;99.90;;;;;;5001071;28;20366;-82
2023/10/31 08:38:03;;;;;;;4.82;3.13;;;10.90;99.90;;;;;;4982831;28;20566;-81
2023/10/31 08:40:29;;;;;;;5.15;3.10;;;11.00;99.90;;;;;;5004439;28;20045;-82
2023/10/31 08:42:55;;;;;;;5.53;2.90;;;11.10;99.90;;;;;;4991521;28;20134;-80
2023/10/31 08:45:21;;;;;;;9.60;3.47;;;11.20;99.90;;;;;;5000275;28;20049;-78
2023/10/31 08:47:47;;;;;;;6.45;2.65;;;11.20;99.90;;;;;;5009566;28;20443;-79
2023/10/31 08:50:13;;;;;;;5.35;2.95;;;11.20;99.90;;;;;;4999172;28;20047;-77
2023/10/31 08:52:39;;;;;;;5.82;2.90;;;11.30;99.90;;;;;;5002614;28;20069;-78
2023/10/31 08:55:06;;;;;;;5.13;2.78;;;11.30;99.90;;;;;;4990226;28;20525;-79
2023/10/31 08:57:33;;;;;;;7.63;2.80;;;11.40;99.90;;;;;;5085922;28;20061;-79
2023/10/31 08:59:59;;;;;;;8.77;3.20;;;11.40;99.90;;;;;;4995326;28;20046;-77
2023/10/31 09:02:25;;;;;;;5.32;2.40;;;11.50;99.90;;;;;;4987273;28;20072;-77
2023/10/31 09:04:50;;;;;;;5.22;2.20;;;11.60;99.90;;;;;;4996885;28;20400;-84
2023/10/31 09:07:16;;;;;;;5.65;2.40;;;11.70;99.90;;;;;;5002511;28;20036;-83
2023/10/31 09:09:42;;;;;;;5.80;2.13;;;11.60;99.90;;;;;;5013034;28;20545;-83
2023/10/31 09:12:08;;;;;;;4.53;1.88;;;11.80;99.90;;;;;;4990283;28;20054;-80
2023/10/31 09:14:35;;;;;;;3.72;1.70;;;11.80;99.90;;;;;;4985984;28;20183;-78
2023/10/31 09:17:00;;;;;;;5.68;1.60;;;11.90;99.90;;;;;;4981952;28;20685;-81
2023/10/31 09:19:26;;;;;;;5.50;1.80;;;11.90;99.90;;;;;;4990345;28;20041;-82
2023/10/31 09:21:52;;;;;;;6.47;1.88;;;11.90;99.90;;;;;;4987264;28;20081;-84
2023/10/31 09:24:17;;;;;;;3.83;1.50;;;12.00;99.90;;;;;;4991596;28;20408;-81
2023/10/31 09:26:43;;;;;;;5.85;1.77;;;12.10;99.90;;;;;;4989474;28;20072;-80
2023/10/31 09:29:10;;;;;;;3.90;1.52;;;12.10;99.90;;;;;;5015334;28;20464;-81
2023/10/31 09:31:36;;;;;;;5.78;1.50;;;12.10;99.90;;;;;;5012231;28;20048;-80
2023/10/31 09:34:03;;;;;;;4.75;1.42;;;12.20;99.90;;;;;;4999152;28;20587;-82
2023/10/31 09:36:32;;;;;;;4.70;1.27;;;12.20;99.90;;;;;;4995241;28;20047;-81
2023/10/31 09:38:58;;;;;;;4.80;1.50;;;12.30;99.90;;;;;;4982988;28;20042;-81
2023/10/31 09:41:23;;;;;;;4.82;1.10;;;12.40;99.90;;;;;;4991019;28;20106;-80
2023/10/31 09:43:50;;;;;;;4.85;1.25;;;12.30;99.90;;;;;;5009567;28;20041;-80
2023/10/31 09:46:16;;;;;;;4.25;1.20;;;12.40;99.90;;;;;;5002581;28;20042;-81
2023/10/31 09:48:43;;;;;;;4.50;0.80;;;12.40;99.90;;;;;;4995303;28;20065;-82
2023/10/31 09:51:11;;;;;;;4.65;1.20;;;12.40;99.90;;;;;;5001201;28;20061;-80
2023/10/31 09:53:41;;;;;;;5.38;0.88;;;12.40;99.90;;;;;;5002283;28;20818;-80
2023/10/31 09:56:07;;;;;;;4.63;1.13;;;12.50;99.90;;;;;;4994279;28;20042;-82
2023/10/31 09:58:33;;;;;;;4.25;1.02;;;12.40;99.90;;;;;;4985933;28;20049;-81
2023/10/31 10:00:58;;;;;;;3.60;0.82;;;12.50;99.90;;;;;;5002356;28;20030;-76
2023/10/31 10:03:24;;;;;;;6.07;1.20;;;12.50;99.90;;;;;;5003500;28;20058;-81
2023/10/31 10:05:51;;;;;;;5.25;1.00;;;12.50;99.90;;;;;;4987306;28;20034;-80
2023/10/31 10:08:16;;;;;;;3.45;1.00;;;12.60;99.90;;;;;;4995908;28;20083;-79
2023/10/31 10:10:42;;;;;;;4.38;1.08;;;12.60;99.90;;;;;;4999794;28;20042;-79
2023/10/31 10:13:09;;;;;;;4.82;1.15;;;12.70;99.90;;;;;;5101239;27;20102;-76
2023/10/31 10:15:45;;;;;;;4.10;0.82;;;12.70;99.90;;;;;;5012079;28;20084;-81
2023/10/31 10:18:23;;;;;;;5.20;0.95;;;12.70;99.90;;;;;;5091244;27;20054;-81
2023/10/31 10:21:03;;;;;;;3.92;0.90;;;12.80;99.90;;;;;;4986092;28;20136;-81
2023/10/31 10:23:29;;;;;;;5.65;0.80;;;12.80;99.90;;;;;;5093149;27;20042;-70
2023/10/31 10:25:57;;;;;;;4.00;1.00;;;12.90;99.90;;;;;;5015649;28;20040;-71
2023/10/31 10:28:24;;;;;;;3.08;0.55;;;12.80;99.90;;;;;;4998794;28;20053;-87
2023/10/31 10:30:51;;;;;;;4.50;0.68;;;12.80;99.90;;;;;;4979302;28;20066;-83
2023/10/31 10:33:17;;;;;;;4.47;0.97;;;12.80;99.90;;;;;;5000940;28;20049;-84
2023/10/31 10:35:44;;;;;;;6.00;0.88;;;12.70;99.90;;;;;;5002187;28;20408;-77
2023/10/31 10:38:16;;;;;;;2.55;0.77;;;12.70;99.90;;;;;;5012407;28;20898;-78
2023/10/31 10:40:46;;;;;;;2.53;0.70;;;12.60;99.90;;;;;;5006546;28;20080;-80
2023/10/31 10:43:16;;;;;;;1.60;0.47;;;12.50;99.90;;;;;;5007653;28;20054;-78
2023/10/31 10:45:45;;;;;;;1.55;0.50;;;12.40;99.90;;;;;;4985070;28;20066;-80
2023/10/31 10:48:15;;;;;;;2.28;0.50;;;12.20;99.90;;;;;;4997565;28;20528;-82
2023/10/31 10:50:43;;;;;;;4.03;0.70;;;12.10;99.90;;;;;;4989836;28;20055;-73
2023/10/31 10:53:25;;;;;;;2.80;0.57;;;12.00;99.90;;;;;;4978461;28;20158;-78
2023/10/31 10:55:55;;;;;;;3.60;1.10;;;11.90;99.90;;;;;;5002225;28;20483;-80
2023/10/31 10:58:50;;;;;;;2.50;1.02;;;11.90;99.90;;;;;;5000329;28;20095;-79
2023/10/31 11:01:18;;;;;;;2.78;0.50;;;11.90;99.90;;;;;;4997435;28;20073;-75
2023/10/31 11:03:46;;;;;;;1.40;0.47;;;11.90;99.90;;;;;;5011341;28;20054;-76
2023/10/31 11:06:13;;;;;;;2.30;0.52;;;11.90;99.90;;;;;;5002233;28;20058;-74
2023/10/31 11:08:41;;;;;;;1.10;0.45;;;12.00;99.90;;;;;;4997527;28;20136;-75
2023/10/31 11:11:06;;;;;;;;;;;12.00;99.90;;;;;;4991613;28;20045;-74
2023/10/31 11:13:32;;;;;;;5.13;2.45;;;12.00;99.90;;;;;;5006309;28;19925;-75
2023/10/31 11:16:06;;;;;;;2.30;1.67;;;11.90;99.90;;;;;;5006119;28;20128;-73
2023/10/31 11:18:32;;;;;;;6.00;2.65;;;11.90;99.90;;;;;;5099045;27;20050;-75
2023/10/31 11:20:58;;;;;;;5.10;3.30;;;11.90;99.90;;;;;;5007995;28;20144;-73
2023/10/31 11:23:24;;;;;;;3.70;1.10;;;11.90;99.90;;;;;;4990285;28;20046;-78
2023/10/31 11:25:53;;;;;;;1.90;0.70;;;11.90;99.90;;;;;;5014003;28;20152;-81
2023/10/31 11:28:19;;;;;;;2.95;0.70;;;11.70;99.90;;;;;;5099562;27;21821;-76
2023/10/31 11:30:49;;;;;;;1.98;0.60;;;11.80;99.90;;;;;;4984271;28;20058;-81
2023/10/31 11:33:18;;;;;;;2.60;0.80;;;11.70;99.90;;;;;;4997218;28;20601;-79
2023/10/31 11:35:49;;;;;;;3.78;0.68;;;11.70;99.90;;;;;;5011516;28;20049;-79
2023/10/31 11:38:14;;;;;;;4.40;0.77;;;11.70;99.90;;;;;;5092881;27;20103;-81
2023/10/31 11:40:49;;;;;;;4.63;0.75;;;11.70;99.90;;;;;;4989677;28;20042;-77
2023/10/31 11:43:15;;;;;;;2.67;0.80;;;11.70;99.90;;;;;;5002189;28;20104;-77
2023/10/31 11:45:42;;;;;;;3.67;0.82;;;11.70;99.90;;;;;;5014579;28;20045;-79
2023/10/31 11:48:09;;;;;;;3.72;1.17;;;11.70;99.90;;;;;;5006240;28;20107;-79
2023/10/31 11:50:36;;;;;;;9.13;3.58;;;11.70;99.90;;;;;;4993376;28;20046;-77
2023/10/31 11:53:06;;;;;;;9.25;6.78;;;11.70;99.90;;;;;;4987564;28;20045;-77
2023/10/31 11:55:39;;;;;;;6.38;2.67;;;11.80;99.90;;;;;;5008861;28;20042;-76
2023/10/31 11:58:14;;;;;;;5.03;1.50;;;11.80;99.90;;;;;;4999226;28;20142;-75
2023/10/31 12:00:39;;;;;;;4.13;1.10;;;11.80;99.90;;;;;;5001887;28;20067;-78
2023/10/31 12:03:05;;;;;;;3.35;0.90;;;11.80;99.90;;;;;;5006744;28;20054;-78
2023/10/31 12:05:31;;;;;;;3.65;0.80;;;11.80;99.90;;;;;;4999601;28;20129;-78
2023/10/31 12:07:57;;;;;;;3.58;0.80;;;11.80;99.90;;;;;;4994137;28;20042;-79
2023/10/31 12:10:29;;;;;;;3.80;1.30;;;11.80;99.90;;;;;;4994601;28;20405;-79
2023/10/31 12:12:56;;;;;;;2.53;0.90;;;11.80;99.90;;;;;;5003133;28;20081;-75
2023/10/31 12:15:22;;;;;;;2.50;0.90;;;11.80;99.90;;;;;;4994452;28;20082;-77
2023/10/31 12:17:48;;;;;;;5.55;1.58;;;11.90;99.90;;;;;;4989363;28;20745;-79
2023/10/31 12:20:14;;;;;;;4.97;1.58;;;12.00;99.90;;;;;;5086774;28;20050;-78
2023/10/31 12:22:40;;;;;;;2.35;0.70;;;12.10;99.90;;;;;;4987717;28;20046;-77
2023/10/31 12:25:10;;;;;;;1.50;0.50;;;12.20;99.90;;;;;;4997662;28;20074;-78
2023/10/31 12:27:47;;;;;;;3.67;1.00;;;12.30;99.90;;;;;;5098123;27;20153;-78
2023/10/31 12:30:15;;;;;;;3.85;0.77;;;12.30;99.90;;;;;;5098255;27;20492;-78
2023/10/31 12:32:41;;;;;;;2.53;0.57;;;12.20;99.90;;;;;;4999178;28;20046;-78
2023/10/31 12:35:15;;;;;;;2.33;0.80;;;12.20;99.90;;;;;;4990076;28;20133;-77
2023/10/31 12:37:45;;;;;;;3.42;0.60;;;12.30;99.90;;;;;;4998542;28;20045;-79
2023/10/31 12:40:14;;;;;;;2.42;0.60;;;12.40;99.90;;;;;;4989233;28;20038;-78